SAS903 ESSA-KEWR
Flight info
| Callsign | SAS903 |
|---|---|
| Flight time | N/A |
| Altitude | 30000 |
| Route | ARS N623 IBGAX DCT ATLAP P600 KLONN DCT GINGA/N0481F320 DCT GOMUP DCT PIKIL/M083F320 NATA JANJO/N0485F340 N712B QUBIS/N0483F360 DCT CBIRD DCT KJOHN DCT HANAA FLOSI4 |
| Aircraft | A343/H-SDE2E3FGHIJ4J5M1RWXY/LB1D1 |
Departure
| Time | 2026-05-04 09:57 |
|---|---|
| Airport | Stockholm-Arlanda Airport (ESSA) |
Arrival
| Time | N/A |
|---|---|
| Airport | Newark Liberty International Airport (KEWR) |
| Time | Latitude | Longitude | Altitude | Speed | Heading |
|---|---|---|---|---|---|
| 2026-05-04 09:37 | 59.65389 | 17.93792 | 145 ft | 0 kts | 255° |
| 2026-05-04 09:46 | 59.65389 | 17.93794 | 141 ft | 2 kts | 255° |
| 2026-05-04 09:46 | 59.65394 | 17.93830 | 141 ft | 3 kts | 255° |
| 2026-05-04 09:46 | 59.65399 | 17.93865 | 141 ft | 3 kts | 255° |
| 2026-05-04 09:47 | 59.65401 | 17.93904 | 141 ft | 3 kts | 297° |
| 2026-05-04 09:47 | 59.65389 | 17.93935 | 141 ft | 3 kts | 341° |
| 2026-05-04 09:49 | 59.65385 | 17.93938 | 141 ft | 0 kts | 345° |
| 2026-05-04 09:51 | 59.65572 | 17.93630 | 141 ft | 12 kts | 256° |
| 2026-05-04 09:51 | 59.65551 | 17.93470 | 141 ft | 11 kts | 255° |
| 2026-05-04 09:51 | 59.65563 | 17.93342 | 141 ft | 10 kts | 309° |
| 2026-05-04 09:51 | 59.65599 | 17.93185 | 141 ft | 15 kts | 269° |
| 2026-05-04 09:52 | 59.65572 | 17.92950 | 141 ft | 20 kts | 256° |
| 2026-05-04 09:52 | 59.65536 | 17.92666 | 141 ft | 21 kts | 256° |
| 2026-05-04 09:52 | 59.65591 | 17.92504 | 141 ft | 14 kts | 340° |
| 2026-05-04 09:52 | 59.65712 | 17.92439 | 142 ft | 22 kts | 347° |
| 2026-05-04 09:53 | 59.65864 | 17.92456 | 142 ft | 22 kts | 10° |
| 2026-05-04 09:53 | 59.66006 | 17.92508 | 142 ft | 20 kts | 11° |
| 2026-05-04 09:53 | 59.66138 | 17.92558 | 142 ft | 19 kts | 11° |
| 2026-05-04 09:53 | 59.66260 | 17.92603 | 142 ft | 17 kts | 10° |
| 2026-05-04 09:54 | 59.66375 | 17.92643 | 142 ft | 16 kts | 10° |
| 2026-05-04 09:54 | 59.66480 | 17.92644 | 142 ft | 15 kts | 345° |
| 2026-05-04 09:54 | 59.66571 | 17.92580 | 142 ft | 13 kts | 339° |
| 2026-05-04 09:54 | 59.66621 | 17.92474 | 144 ft | 9 kts | 288° |
| 2026-05-04 09:55 | 59.66617 | 17.92384 | 145 ft | 6 kts | 237° |
| 2026-05-04 09:55 | 59.66592 | 17.92363 | 145 ft | 0 kts | 193° |
| 2026-05-04 09:55 | 59.66589 | 17.92362 | 145 ft | 3 kts | 193° |
| 2026-05-04 09:55 | 59.66463 | 17.92311 | 146 ft | 44 kts | 191° |
| 2026-05-04 09:56 | 59.65980 | 17.92140 | 148 ft | 96 kts | 191° |
| 2026-05-04 09:56 | 59.65163 | 17.91843 | 147 ft | 141 kts | 190° |
| 2026-05-04 09:56 | 59.64065 | 17.91440 | 163 ft | 177 kts | 191° |
| 2026-05-04 09:56 | 59.62868 | 17.91016 | 734 ft | 174 kts | 192° |
| 2026-05-04 09:57 | 59.61668 | 17.90559 | 1336 ft | 177 kts | 198° |
| 2026-05-04 09:57 | 59.60655 | 17.89154 | 1524 ft | 186 kts | 239° |
| 2026-05-04 09:57 | 59.60063 | 17.86825 | 1787 ft | 197 kts | 246° |
| 2026-05-04 09:57 | 59.59439 | 17.84316 | 2167 ft | 204 kts | 243° |
| 2026-05-04 09:58 | 59.58741 | 17.81809 | 2594 ft | 212 kts | 243° |
| 2026-05-04 09:58 | 59.58051 | 17.79144 | 2927 ft | 225 kts | 245° |
| 2026-05-04 09:58 | 59.57337 | 17.76296 | 3264 ft | 237 kts | 245° |
| 2026-05-04 10:00 | 59.57193 | 17.52850 | 7291 ft | 251 kts | 272° |
| 2026-05-04 10:00 | 59.57265 | 17.49392 | 7846 ft | 253 kts | 272° |
| 2026-05-04 10:02 | 59.57751 | 17.23863 | 10628 ft | 294 kts | 272° |
| 2026-05-04 10:04 | 59.58270 | 16.92556 | 12732 ft | 347 kts | 271° |
| 2026-05-04 10:04 | 59.58343 | 16.87782 | 13214 ft | 349 kts | 271° |
| 2026-05-04 10:04 | 59.58415 | 16.82966 | 13694 ft | 351 kts | 270° |
| 2026-05-04 10:04 | 59.58485 | 16.78123 | 14123 ft | 354 kts | 270° |
| 2026-05-04 10:05 | 59.58554 | 16.73265 | 14559 ft | 356 kts | 270° |
| 2026-05-04 10:05 | 59.58623 | 16.68368 | 15011 ft | 358 kts | 270° |
| 2026-05-04 10:05 | 59.58823 | 16.63454 | 15457 ft | 361 kts | 275° |
| 2026-05-04 10:05 | 59.59217 | 16.58553 | 15892 ft | 363 kts | 278° |
| 2026-05-04 10:06 | 59.59713 | 16.53640 | 16332 ft | 366 kts | 279° |
| 2026-05-04 10:06 | 59.60249 | 16.48721 | 16808 ft | 368 kts | 279° |
| 2026-05-04 10:06 | 59.60791 | 16.43778 | 17294 ft | 368 kts | 279° |
| 2026-05-04 10:08 | 59.63936 | 16.13596 | 19515 ft | 381 kts | 279° |
| 2026-05-04 10:08 | 59.64526 | 16.08550 | 19868 ft | 383 kts | 280° |
| 2026-05-04 10:08 | 59.65134 | 16.03414 | 20217 ft | 385 kts | 280° |
| 2026-05-04 10:08 | 59.65743 | 15.98239 | 20553 ft | 387 kts | 280° |
| 2026-05-04 10:09 | 59.66347 | 15.93040 | 20892 ft | 389 kts | 279° |
| 2026-05-04 10:09 | 59.66948 | 15.87800 | 21235 ft | 391 kts | 279° |
| 2026-05-04 10:09 | 59.67544 | 15.82547 | 21658 ft | 391 kts | 279° |
| 2026-05-04 10:09 | 59.68136 | 15.77296 | 22033 ft | 392 kts | 279° |
| 2026-05-04 10:10 | 59.68728 | 15.72007 | 22339 ft | 394 kts | 279° |
| 2026-05-04 10:10 | 59.69320 | 15.66694 | 22640 ft | 396 kts | 279° |
| 2026-05-04 10:10 | 59.69914 | 15.61347 | 22944 ft | 398 kts | 279° |
| 2026-05-04 10:10 | 59.70508 | 15.55978 | 23241 ft | 400 kts | 279° |
| 2026-05-04 10:11 | 59.71103 | 15.50585 | 23491 ft | 402 kts | 279° |
| 2026-05-04 10:11 | 59.71698 | 15.45160 | 23735 ft | 404 kts | 279° |
| 2026-05-04 10:11 | 59.72295 | 15.39707 | 23976 ft | 406 kts | 279° |
| 2026-05-04 10:11 | 59.72881 | 15.34218 | 24211 ft | 407 kts | 278° |
| 2026-05-04 10:12 | 59.73427 | 15.28699 | 24464 ft | 408 kts | 277° |
| 2026-05-04 10:12 | 59.73954 | 15.23152 | 24707 ft | 410 kts | 277° |
| 2026-05-04 10:12 | 59.74467 | 15.17668 | 25035 ft | 409 kts | 277° |
| 2026-05-04 10:12 | 59.74986 | 15.12129 | 25296 ft | 410 kts | 277° |
| 2026-05-04 10:13 | 59.75510 | 15.06565 | 25509 ft | 412 kts | 277° |
| 2026-05-04 10:13 | 59.76038 | 15.00963 | 25714 ft | 414 kts | 277° |
| 2026-05-04 10:13 | 59.76570 | 14.95330 | 25933 ft | 415 kts | 277° |
| 2026-05-04 10:13 | 59.77101 | 14.89694 | 26142 ft | 417 kts | 277° |
| 2026-05-04 10:14 | 59.77633 | 14.84032 | 26362 ft | 418 kts | 277° |
| 2026-05-04 10:14 | 59.78164 | 14.78343 | 26576 ft | 419 kts | 277° |
| 2026-05-04 10:16 | 59.81842 | 14.38197 | 28082 ft | 426 kts | 276° |
| 2026-05-04 10:16 | 59.82362 | 14.32394 | 28250 ft | 427 kts | 276° |
| 2026-05-04 10:16 | 59.82883 | 14.26544 | 28437 ft | 429 kts | 276° |
| 2026-05-04 10:16 | 59.83401 | 14.20715 | 28679 ft | 428 kts | 276° |
| 2026-05-04 10:17 | 59.83916 | 14.14891 | 28942 ft | 427 kts | 276° |
| 2026-05-04 10:17 | 59.84428 | 14.09064 | 29209 ft | 427 kts | 276° |
| 2026-05-04 10:19 | 59.87930 | 13.68364 | 29691 ft | 426 kts | 276° |
| 2026-05-04 10:19 | 59.88418 | 13.62552 | 29696 ft | 426 kts | 276° |
| 2026-05-04 10:19 | 59.89388 | 13.50915 | 29691 ft | 426 kts | 276° |
| 2026-05-04 10:20 | 59.90348 | 13.39269 | 29693 ft | 426 kts | 276° |
| 2026-05-04 10:20 | 59.91297 | 13.27620 | 29727 ft | 426 kts | 276° |
| 2026-05-04 10:21 | 59.92230 | 13.16051 | 29690 ft | 421 kts | 276° |
| 2026-05-04 10:21 | 59.93147 | 13.04535 | 29693 ft | 420 kts | 276° |
| 2026-05-04 10:22 | 59.94496 | 12.87338 | 29684 ft | 420 kts | 275° |
| 2026-05-04 10:23 | 59.95387 | 12.75826 | 29691 ft | 420 kts | 275° |
| 2026-05-04 10:25 | 59.96399 | 12.29906 | 29690 ft | 413 kts | 257° |
| 2026-05-04 10:25 | 59.95041 | 12.18753 | 29701 ft | 413 kts | 255° |
| 2026-05-04 10:26 | 59.93616 | 12.07632 | 29706 ft | 414 kts | 255° |
| 2026-05-04 10:26 | 59.92206 | 11.96584 | 29703 ft | 413 kts | 255° |
| 2026-05-04 10:27 | 59.90795 | 11.85484 | 29703 ft | 414 kts | 256° |
| 2026-05-04 10:27 | 59.89373 | 11.74338 | 29706 ft | 415 kts | 256° |
| 2026-05-04 10:28 | 59.88185 | 11.65083 | 29719 ft | 415 kts | 256° |
| 2026-05-04 10:28 | 59.86738 | 11.53893 | 29717 ft | 415 kts | 255° |
| 2026-05-04 10:29 | 59.85299 | 11.42851 | 29720 ft | 415 kts | 255° |
| 2026-05-04 10:29 | 59.83841 | 11.31753 | 29723 ft | 415 kts | 255° |
| 2026-05-04 10:30 | 59.82374 | 11.20663 | 29735 ft | 415 kts | 256° |
| 2026-05-04 10:30 | 59.80889 | 11.09515 | 29739 ft | 418 kts | 255° |
| 2026-05-04 10:31 | 59.79393 | 10.98371 | 29740 ft | 418 kts | 255° |
| 2026-05-04 10:32 | 59.74080 | 10.59416 | 29704 ft | 417 kts | 255° |
| 2026-05-04 10:33 | 59.72549 | 10.48369 | 29742 ft | 418 kts | 256° |
| 2026-05-04 10:33 | 59.70994 | 10.37222 | 29748 ft | 420 kts | 256° |
| 2026-05-04 10:34 | 59.69427 | 10.26065 | 29745 ft | 421 kts | 256° |
| 2026-05-04 10:34 | 59.67848 | 10.14906 | 29740 ft | 421 kts | 256° |
| 2026-05-04 10:35 | 59.66263 | 10.03785 | 29744 ft | 420 kts | 256° |
| 2026-05-04 10:35 | 59.64663 | 9.92628 | 29745 ft | 421 kts | 256° |
| 2026-05-04 10:36 | 59.63056 | 9.81508 | 29783 ft | 421 kts | 256° |
| 2026-05-04 10:36 | 59.61450 | 9.70480 | 29748 ft | 414 kts | 257° |
| 2026-05-04 10:37 | 59.59851 | 9.59560 | 29754 ft | 413 kts | 257° |
| 2026-05-04 10:37 | 59.58257 | 9.48726 | 29752 ft | 414 kts | 257° |
| 2026-05-04 10:39 | 59.52523 | 9.10358 | 29784 ft | 424 kts | 257° |
| 2026-05-04 10:40 | 59.50841 | 8.99316 | 29775 ft | 418 kts | 257° |
| 2026-05-04 10:40 | 59.49166 | 8.88354 | 29774 ft | 418 kts | 257° |
| 2026-05-04 10:41 | 59.47487 | 8.77419 | 29782 ft | 418 kts | 257° |
| 2026-05-04 10:41 | 59.45795 | 8.66480 | 29772 ft | 418 kts | 257° |
| 2026-05-04 10:42 | 59.44093 | 8.55550 | 29801 ft | 418 kts | 257° |
| 2026-05-04 10:42 | 59.42380 | 8.44616 | 29795 ft | 418 kts | 257° |
| 2026-05-04 10:43 | 59.40667 | 8.33764 | 29805 ft | 419 kts | 257° |
| 2026-05-04 10:45 | 59.33681 | 7.90138 | 29836 ft | 422 kts | 258° |
| 2026-05-04 10:45 | 59.31895 | 7.79162 | 29837 ft | 423 kts | 257° |
| 2026-05-04 10:46 | 59.30107 | 7.68252 | 29856 ft | 424 kts | 258° |
| 2026-05-04 10:46 | 59.28284 | 7.57183 | 29852 ft | 425 kts | 258° |
| 2026-05-04 10:47 | 59.26474 | 7.46265 | 29867 ft | 425 kts | 258° |
| 2026-05-04 10:47 | 59.24641 | 7.35277 | 29866 ft | 425 kts | 258° |
| 2026-05-04 10:49 | 59.17226 | 6.91509 | 29887 ft | 421 kts | 258° |
| 2026-05-04 10:50 | 59.15365 | 6.80678 | 29886 ft | 421 kts | 258° |
| 2026-05-04 10:52 | 59.07747 | 6.37009 | 29913 ft | 429 kts | 257° |
| 2026-05-04 10:52 | 59.05816 | 6.26120 | 29899 ft | 423 kts | 257° |
| 2026-05-04 10:54 | 58.98071 | 5.82988 | 29914 ft | 423 kts | 257° |
| 2026-05-04 10:56 | 58.90172 | 5.40006 | 29913 ft | 427 kts | 256° |
| 2026-05-04 10:57 | 58.88146 | 5.29117 | 29921 ft | 431 kts | 256° |
| 2026-05-04 10:57 | 58.86116 | 5.18306 | 29921 ft | 430 kts | 256° |
| 2026-05-04 10:58 | 58.84065 | 5.07436 | 29917 ft | 430 kts | 256° |
| 2026-05-04 10:58 | 58.82008 | 4.96589 | 29922 ft | 430 kts | 256° |
| 2026-05-04 10:59 | 58.79939 | 4.85739 | 29922 ft | 430 kts | 256° |
| 2026-05-04 10:59 | 58.77864 | 4.74915 | 29925 ft | 430 kts | 256° |
| 2026-05-04 11:00 | 58.75778 | 4.64090 | 29927 ft | 430 kts | 256° |
| 2026-05-04 11:02 | 58.67367 | 4.21062 | 29928 ft | 429 kts | 255° |
| 2026-05-04 11:05 | 58.51244 | 3.41080 | 29943 ft | 428 kts | 255° |
| 2026-05-04 11:06 | 58.49071 | 3.30539 | 29941 ft | 428 kts | 255° |
| 2026-05-04 11:06 | 58.46878 | 3.19958 | 29941 ft | 428 kts | 255° |
| 2026-05-04 11:10 | 58.36419 | 2.43750 | 29938 ft | 424 kts | 268° |
| 2026-05-04 11:12 | 58.33239 | 1.99327 | 29940 ft | 424 kts | 267° |
| 2026-05-04 11:12 | 58.32417 | 1.88215 | 29926 ft | 424 kts | 267° |
| 2026-05-04 11:13 | 58.31585 | 1.77102 | 29943 ft | 423 kts | 267° |
| 2026-05-04 11:13 | 58.30746 | 1.66033 | 29942 ft | 422 kts | 267° |
| 2026-05-04 11:16 | 58.26565 | 1.12704 | 29963 ft | 422 kts | 267° |
| 2026-05-04 11:16 | 58.25671 | 1.01677 | 29963 ft | 422 kts | 266° |
| 2026-05-04 11:17 | 58.24768 | 0.90666 | 29965 ft | 422 kts | 266° |
| 2026-05-04 11:19 | 58.21061 | 0.46624 | 29969 ft | 422 kts | 266° |
| 2026-05-04 11:19 | 58.20110 | 0.35631 | 29969 ft | 422 kts | 266° |
| 2026-05-04 11:20 | 58.19154 | 0.24662 | 29968 ft | 428 kts | 266° |
| 2026-05-04 11:20 | 58.18170 | 0.13501 | 29973 ft | 429 kts | 266° |
| 2026-05-04 11:22 | 58.14131 | -0.31056 | 29977 ft | 429 kts | 265° |
| 2026-05-04 11:23 | 58.13096 | -0.42194 | 29978 ft | 429 kts | 265° |
| 2026-05-04 11:25 | 58.09412 | -0.80998 | 29978 ft | 429 kts | 265° |
| 2026-05-04 11:25 | 58.08335 | -0.92090 | 29982 ft | 429 kts | 265° |
| 2026-05-04 11:27 | 58.03367 | -1.41977 | 29979 ft | 430 kts | 264° |
| 2026-05-04 11:28 | 58.02235 | -1.53052 | 29988 ft | 430 kts | 264° |
| 2026-05-04 11:28 | 58.01091 | -1.64142 | 29988 ft | 430 kts | 264° |
| 2026-05-04 11:29 | 57.99939 | -1.75212 | 29988 ft | 430 kts | 264° |
| 2026-05-04 11:29 | 57.98785 | -1.86213 | 29985 ft | 430 kts | 263° |
| 2026-05-04 11:33 | 57.91723 | -2.51469 | 29982 ft | 430 kts | 262° |
| 2026-05-04 11:33 | 57.90976 | -2.58182 | 29981 ft | 430 kts | 262° |
| 2026-05-04 11:34 | 57.89750 | -2.69123 | 29969 ft | 430 kts | 262° |
| 2026-05-04 11:34 | 57.88503 | -2.80172 | 29984 ft | 435 kts | 262° |
| 2026-05-04 11:35 | 57.87234 | -2.91315 | 29987 ft | 436 kts | 262° |
| 2026-05-04 11:35 | 57.85955 | -3.02437 | 29987 ft | 436 kts | 262° |
| 2026-05-04 11:36 | 57.84667 | -3.13549 | 29990 ft | 435 kts | 262° |
| 2026-05-04 11:36 | 57.83372 | -3.24638 | 29988 ft | 435 kts | 262° |
| 2026-05-04 11:37 | 57.82067 | -3.35721 | 29992 ft | 435 kts | 261° |
| 2026-05-04 11:37 | 57.80750 | -3.46811 | 29991 ft | 435 kts | 261° |
| 2026-05-04 11:38 | 57.79432 | -3.57829 | 29991 ft | 435 kts | 261° |
| 2026-05-04 11:38 | 57.78098 | -3.68894 | 29981 ft | 435 kts | 261° |
| 2026-05-04 11:39 | 57.76756 | -3.79923 | 29981 ft | 434 kts | 261° |
| 2026-05-04 11:41 | 57.71988 | -4.18465 | 29990 ft | 434 kts | 261° |
| 2026-05-04 11:41 | 57.70604 | -4.29453 | 29993 ft | 433 kts | 260° |
| 2026-05-04 11:42 | 57.69216 | -4.40392 | 30000 ft | 432 kts | 260° |
| 2026-05-04 11:42 | 57.67820 | -4.51313 | 29994 ft | 432 kts | 260° |
| 2026-05-04 11:43 | 57.66413 | -4.62242 | 30004 ft | 432 kts | 260° |
| 2026-05-04 11:43 | 57.65006 | -4.73089 | 30008 ft | 432 kts | 260° |
| 2026-05-04 11:44 | 57.63582 | -4.83993 | 29987 ft | 432 kts | 259° |
| 2026-05-04 11:44 | 57.62147 | -4.94891 | 30001 ft | 433 kts | 259° |
| 2026-05-04 11:45 | 57.60698 | -5.05809 | 30016 ft | 434 kts | 259° |
| 2026-05-04 11:45 | 57.59239 | -5.16722 | 30007 ft | 433 kts | 259° |
| 2026-05-04 11:46 | 57.57772 | -5.27622 | 30030 ft | 433 kts | 259° |
| 2026-05-04 11:46 | 57.56305 | -5.38449 | 30037 ft | 433 kts | 259° |
| 2026-05-04 11:47 | 57.54821 | -5.49338 | 30025 ft | 433 kts | 258° |
| 2026-05-04 11:47 | 57.53329 | -5.60193 | 30026 ft | 433 kts | 258° |
| 2026-05-04 11:48 | 57.51826 | -5.71043 | 30027 ft | 435 kts | 258° |
| 2026-05-04 11:48 | 57.50300 | -5.81990 | 30030 ft | 437 kts | 258° |
| 2026-05-04 11:49 | 57.48761 | -5.92944 | 30029 ft | 437 kts | 258° |
| 2026-05-04 11:49 | 57.47224 | -6.03813 | 30035 ft | 437 kts | 258° |
| 2026-05-04 11:50 | 57.45672 | -6.14711 | 30031 ft | 436 kts | 258° |
| 2026-05-04 11:50 | 57.44113 | -6.25590 | 30037 ft | 436 kts | 258° |
| 2026-05-04 11:51 | 57.42546 | -6.36445 | 30038 ft | 436 kts | 258° |
| 2026-05-04 11:51 | 57.40967 | -6.47310 | 30037 ft | 436 kts | 257° |
| 2026-05-04 11:52 | 57.39380 | -6.58156 | 30037 ft | 436 kts | 257° |
| 2026-05-04 11:52 | 57.37784 | -6.68996 | 30037 ft | 436 kts | 257° |
| 2026-05-04 11:53 | 57.36179 | -6.79817 | 30032 ft | 436 kts | 257° |
| 2026-05-04 11:53 | 57.34563 | -6.90643 | 30030 ft | 436 kts | 257° |
| 2026-05-04 11:55 | 57.28021 | -7.33758 | 30027 ft | 435 kts | 257° |
| 2026-05-04 11:56 | 57.26360 | -7.44530 | 30029 ft | 435 kts | 257° |
| 2026-05-04 11:56 | 57.24695 | -7.55255 | 30039 ft | 435 kts | 257° |
| 2026-05-04 11:57 | 57.23015 | -7.66012 | 30040 ft | 435 kts | 256° |
| 2026-05-04 11:57 | 57.21327 | -7.76748 | 30038 ft | 435 kts | 256° |
| 2026-05-04 11:58 | 57.19641 | -7.87403 | 30044 ft | 435 kts | 256° |
| 2026-05-04 11:58 | 57.17941 | -7.98081 | 30044 ft | 434 kts | 256° |
| 2026-05-04 11:59 | 57.16232 | -8.08757 | 30042 ft | 434 kts | 256° |
| 2026-05-04 11:59 | 57.14512 | -8.19428 | 30042 ft | 434 kts | 256° |
| 2026-05-04 12:00 | 57.12781 | -8.30105 | 30044 ft | 434 kts | 256° |
| 2026-05-04 12:00 | 57.11043 | -8.40754 | 30048 ft | 434 kts | 256° |
| 2026-05-04 12:01 | 57.09296 | -8.51393 | 30046 ft | 434 kts | 256° |
| 2026-05-04 12:02 | 57.03081 | -8.88740 | 30050 ft | 438 kts | 255° |
| 2026-05-04 12:03 | 57.01274 | -8.99452 | 30055 ft | 439 kts | 255° |
| 2026-05-04 12:03 | 56.99461 | -9.10129 | 30049 ft | 439 kts | 255° |
| 2026-05-04 12:04 | 56.97944 | -9.19013 | 30050 ft | 439 kts | 255° |
| 2026-05-04 12:04 | 56.96112 | -9.29693 | 30056 ft | 439 kts | 255° |
| 2026-05-04 12:05 | 56.94064 | -9.42120 | 30059 ft | 437 kts | 259° |
| 2026-05-04 12:05 | 56.93507 | -9.51347 | 30067 ft | 436 kts | 272° |
| 2026-05-04 12:06 | 56.93777 | -9.56885 | 30187 ft | 437 kts | 280° |
| 2026-05-04 12:06 | 56.94403 | -9.62326 | 30384 ft | 437 kts | 283° |
| 2026-05-04 12:06 | 56.95160 | -9.67717 | 30595 ft | 436 kts | 285° |
| 2026-05-04 12:06 | 56.95977 | -9.73065 | 30814 ft | 435 kts | 285° |
| 2026-05-04 12:07 | 56.96801 | -9.78326 | 31022 ft | 434 kts | 285° |
| 2026-05-04 12:07 | 56.97642 | -9.83716 | 31227 ft | 434 kts | 285° |
| 2026-05-04 12:07 | 56.98437 | -9.88967 | 31422 ft | 433 kts | 283° |
| 2026-05-04 12:07 | 56.98990 | -9.94383 | 31627 ft | 431 kts | 277° |
| 2026-05-04 12:08 | 56.99151 | -9.99848 | 31930 ft | 428 kts | 270° |
| 2026-05-04 12:08 | 56.98903 | -10.05290 | 32042 ft | 428 kts | 262° |
| 2026-05-04 12:08 | 56.97406 | -10.15798 | 32064 ft | 425 kts | 255° |
| 2026-05-04 12:09 | 56.95567 | -10.26098 | 32062 ft | 426 kts | 254° |
| 2026-05-04 12:09 | 56.93681 | -10.36408 | 32064 ft | 427 kts | 254° |
| 2026-05-04 12:10 | 56.91815 | -10.46706 | 32070 ft | 427 kts | 254° |
| 2026-05-04 12:10 | 56.89954 | -10.57024 | 32069 ft | 426 kts | 254° |
| 2026-05-04 12:11 | 56.88089 | -10.67337 | 32070 ft | 427 kts | 254° |
| 2026-05-04 12:11 | 56.86211 | -10.77655 | 32070 ft | 427 kts | 254° |
| 2026-05-04 12:12 | 56.84335 | -10.87899 | 32072 ft | 427 kts | 254° |
| 2026-05-04 12:12 | 56.82441 | -10.98185 | 32072 ft | 427 kts | 254° |
| 2026-05-04 12:14 | 56.74764 | -11.39318 | 32083 ft | 429 kts | 253° |
| 2026-05-04 12:15 | 56.72820 | -11.49594 | 32086 ft | 429 kts | 253° |
| 2026-05-04 12:15 | 56.70880 | -11.59787 | 32086 ft | 429 kts | 253° |
| 2026-05-04 12:16 | 56.68922 | -11.70031 | 32086 ft | 429 kts | 253° |
| 2026-05-04 12:16 | 56.66952 | -11.80282 | 32086 ft | 430 kts | 253° |
| 2026-05-04 12:17 | 56.64968 | -11.90550 | 32086 ft | 430 kts | 253° |
| 2026-05-04 12:17 | 56.62974 | -12.00809 | 32086 ft | 430 kts | 253° |
| 2026-05-04 12:18 | 56.60974 | -12.11048 | 32085 ft | 430 kts | 253° |
| 2026-05-04 12:18 | 56.58976 | -12.21226 | 32091 ft | 430 kts | 252° |
| 2026-05-04 12:19 | 56.56959 | -12.31444 | 32089 ft | 430 kts | 252° |
| 2026-05-04 12:19 | 56.54933 | -12.41654 | 32097 ft | 430 kts | 252° |
| 2026-05-04 12:20 | 56.52897 | -12.51862 | 32102 ft | 430 kts | 252° |
| 2026-05-04 12:20 | 56.50854 | -12.62053 | 32099 ft | 430 kts | 252° |
| 2026-05-04 12:21 | 56.48804 | -12.72227 | 32099 ft | 430 kts | 252° |
| 2026-05-04 12:21 | 56.46742 | -12.82410 | 32100 ft | 431 kts | 252° |
| 2026-05-04 12:22 | 56.44665 | -12.92619 | 32099 ft | 433 kts | 252° |
| 2026-05-04 12:22 | 56.42578 | -13.02816 | 32099 ft | 433 kts | 252° |
| 2026-05-04 12:23 | 56.40492 | -13.12954 | 32105 ft | 433 kts | 252° |
| 2026-05-04 12:23 | 56.38388 | -13.23133 | 32110 ft | 433 kts | 251° |
| 2026-05-04 12:24 | 56.36274 | -13.33307 | 32102 ft | 433 kts | 251° |
| 2026-05-04 12:24 | 56.34153 | -13.43469 | 32113 ft | 433 kts | 251° |
| 2026-05-04 12:25 | 56.32020 | -13.53630 | 32116 ft | 433 kts | 251° |
| 2026-05-04 12:25 | 56.29876 | -13.63794 | 32116 ft | 433 kts | 251° |
| 2026-05-04 12:26 | 56.27728 | -13.73928 | 32119 ft | 433 kts | 251° |
| 2026-05-04 12:26 | 56.25569 | -13.84063 | 32119 ft | 433 kts | 251° |
| 2026-05-04 12:27 | 56.23415 | -13.94122 | 32121 ft | 435 kts | 251° |
| 2026-05-04 12:27 | 56.21232 | -14.04269 | 32122 ft | 435 kts | 250° |
| 2026-05-04 12:28 | 56.19043 | -14.14397 | 32125 ft | 435 kts | 250° |
| 2026-05-04 12:28 | 56.16840 | -14.24535 | 32124 ft | 435 kts | 250° |
| 2026-05-04 12:29 | 56.14686 | -14.34400 | 32127 ft | 435 kts | 250° |
| 2026-05-04 12:29 | 56.12491 | -14.44409 | 32128 ft | 437 kts | 250° |
| 2026-05-04 12:30 | 56.10307 | -14.54316 | 32133 ft | 437 kts | 250° |
| 2026-05-04 12:30 | 56.08065 | -14.64440 | 32132 ft | 438 kts | 250° |
| 2026-05-04 12:31 | 56.05811 | -14.74567 | 32138 ft | 438 kts | 250° |
| 2026-05-04 12:31 | 56.03551 | -14.84673 | 32139 ft | 438 kts | 250° |
| 2026-05-04 12:32 | 56.01618 | -15.00485 | 32140 ft | 437 kts | 271° |
| 2026-05-04 12:33 | 56.02637 | -15.11184 | 32138 ft | 440 kts | 288° |
| 2026-05-04 12:33 | 56.04812 | -15.21450 | 32143 ft | 442 kts | 291° |
| 2026-05-04 12:34 | 56.07144 | -15.31635 | 32143 ft | 443 kts | 291° |
| 2026-05-04 12:34 | 56.09444 | -15.41783 | 32145 ft | 442 kts | 291° |
| 2026-05-04 12:35 | 56.11721 | -15.52036 | 32150 ft | 442 kts | 290° |
| 2026-05-04 12:35 | 56.13979 | -15.62310 | 32149 ft | 444 kts | 291° |
| 2026-05-04 12:36 | 56.16234 | -15.72638 | 32148 ft | 445 kts | 291° |
| 2026-05-04 12:36 | 56.18487 | -15.82997 | 32148 ft | 445 kts | 291° |
| 2026-05-04 12:37 | 56.20731 | -15.93365 | 32151 ft | 445 kts | 291° |
| 2026-05-04 12:37 | 56.22968 | -16.03754 | 32151 ft | 445 kts | 290° |
| 2026-05-04 12:38 | 56.25193 | -16.14134 | 32150 ft | 445 kts | 290° |
| 2026-05-04 12:38 | 56.27409 | -16.24529 | 32152 ft | 445 kts | 290° |
| 2026-05-04 12:39 | 56.29607 | -16.34891 | 32157 ft | 446 kts | 290° |
| 2026-05-04 12:39 | 56.31810 | -16.45330 | 32157 ft | 445 kts | 290° |
| 2026-05-04 12:40 | 56.34002 | -16.55770 | 32159 ft | 445 kts | 290° |
| 2026-05-04 12:40 | 56.36186 | -16.66229 | 32160 ft | 445 kts | 290° |
| 2026-05-04 12:41 | 56.38361 | -16.76696 | 32158 ft | 445 kts | 290° |
| 2026-05-04 12:41 | 56.40514 | -16.87114 | 32162 ft | 445 kts | 290° |
| 2026-05-04 12:42 | 56.42670 | -16.97595 | 32161 ft | 445 kts | 289° |
| 2026-05-04 12:42 | 56.44777 | -17.07895 | 32164 ft | 446 kts | 289° |
| 2026-05-04 12:43 | 56.46815 | -17.17919 | 32176 ft | 446 kts | 289° |
| 2026-05-04 12:43 | 56.48931 | -17.28456 | 32166 ft | 445 kts | 289° |
| 2026-05-04 12:44 | 56.51050 | -17.38927 | 32168 ft | 445 kts | 289° |
| 2026-05-04 12:44 | 56.53169 | -17.49463 | 32167 ft | 445 kts | 289° |
| 2026-05-04 12:45 | 56.55173 | -17.59508 | 32168 ft | 445 kts | 289° |
| 2026-05-04 12:45 | 56.57078 | -17.69111 | 32171 ft | 445 kts | 289° |
| 2026-05-04 12:46 | 56.59164 | -17.79686 | 32173 ft | 446 kts | 289° |
| 2026-05-04 12:46 | 56.61246 | -17.90295 | 32173 ft | 446 kts | 289° |
| 2026-05-04 12:47 | 56.63316 | -18.00906 | 32173 ft | 446 kts | 289° |
| 2026-05-04 12:47 | 56.65378 | -18.11533 | 32164 ft | 445 kts | 289° |
| 2026-05-04 12:48 | 56.67416 | -18.22094 | 32180 ft | 445 kts | 289° |
| 2026-05-04 12:48 | 56.69460 | -18.32739 | 32178 ft | 445 kts | 289° |
| 2026-05-04 12:49 | 56.71493 | -18.43385 | 32179 ft | 445 kts | 289° |
| 2026-05-04 12:49 | 56.73518 | -18.54050 | 32181 ft | 445 kts | 289° |
| 2026-05-04 12:50 | 56.75535 | -18.64728 | 32180 ft | 445 kts | 289° |
| 2026-05-04 12:50 | 56.77540 | -18.75409 | 32181 ft | 445 kts | 289° |
| 2026-05-04 12:51 | 56.79532 | -18.86083 | 32181 ft | 444 kts | 289° |
| 2026-05-04 12:51 | 56.81517 | -18.96770 | 32181 ft | 444 kts | 288° |
| 2026-05-04 12:52 | 56.83487 | -19.07446 | 32184 ft | 444 kts | 289° |
| 2026-05-04 12:52 | 56.85439 | -19.18084 | 32189 ft | 444 kts | 289° |
| 2026-05-04 12:53 | 56.87394 | -19.28795 | 32184 ft | 444 kts | 289° |
| 2026-05-04 12:53 | 56.89340 | -19.39519 | 32192 ft | 444 kts | 288° |
| 2026-05-04 12:54 | 56.91276 | -19.50251 | 32192 ft | 444 kts | 288° |
| 2026-05-04 12:54 | 56.93201 | -19.60979 | 32200 ft | 444 kts | 288° |
| 2026-05-04 12:55 | 56.95114 | -19.71711 | 32192 ft | 443 kts | 288° |
| 2026-05-04 12:55 | 56.97020 | -19.82461 | 32191 ft | 443 kts | 288° |
| 2026-05-04 12:56 | 56.98911 | -19.93191 | 32195 ft | 442 kts | 288° |
| 2026-05-04 12:56 | 57.00208 | -20.04203 | 32198 ft | 442 kts | 277° |
| 2026-05-04 12:57 | 57.00675 | -20.13539 | 32195 ft | 442 kts | 275° |
| 2026-05-04 12:57 | 57.01167 | -20.26645 | 32198 ft | 442 kts | 275° |
| 2026-05-04 12:58 | 57.01565 | -20.37918 | 32198 ft | 442 kts | 275° |
| 2026-05-04 12:58 | 57.01899 | -20.47285 | 32198 ft | 442 kts | 275° |
| 2026-05-04 12:59 | 57.02299 | -20.58556 | 32203 ft | 442 kts | 275° |
| 2026-05-04 12:59 | 57.02693 | -20.69820 | 32203 ft | 442 kts | 275° |
| 2026-05-04 13:00 | 57.03076 | -20.81094 | 32206 ft | 442 kts | 275° |
| 2026-05-04 13:00 | 57.03447 | -20.92340 | 32208 ft | 442 kts | 275° |
| 2026-05-04 13:01 | 57.03808 | -21.03608 | 32210 ft | 442 kts | 274° |
| 2026-05-04 13:01 | 57.04160 | -21.14878 | 32207 ft | 442 kts | 274° |
| 2026-05-04 13:02 | 57.04501 | -21.26136 | 32211 ft | 441 kts | 274° |
| 2026-05-04 13:02 | 57.04829 | -21.37318 | 32211 ft | 441 kts | 274° |
| 2026-05-04 13:03 | 57.05150 | -21.48571 | 32213 ft | 441 kts | 274° |
| 2026-05-04 13:03 | 57.05460 | -21.59833 | 32214 ft | 441 kts | 274° |
| 2026-05-04 13:04 | 57.05761 | -21.71092 | 32213 ft | 441 kts | 274° |
| 2026-05-04 13:04 | 57.06051 | -21.82353 | 32222 ft | 441 kts | 274° |
| 2026-05-04 13:05 | 57.06331 | -21.93627 | 32219 ft | 441 kts | 274° |
| 2026-05-04 13:05 | 57.06601 | -22.04907 | 32222 ft | 441 kts | 274° |
| 2026-05-04 13:06 | 57.06862 | -22.16179 | 32221 ft | 441 kts | 274° |
| 2026-05-04 13:06 | 57.07112 | -22.27469 | 32221 ft | 441 kts | 274° |
| 2026-05-04 13:07 | 57.07351 | -22.38671 | 32223 ft | 441 kts | 273° |
| 2026-05-04 13:07 | 57.07581 | -22.49955 | 32222 ft | 443 kts | 273° |
| 2026-05-04 13:08 | 57.07802 | -22.61283 | 32224 ft | 443 kts | 273° |
| 2026-05-04 13:08 | 57.08011 | -22.72597 | 32224 ft | 443 kts | 273° |
| 2026-05-04 13:09 | 57.08211 | -22.83928 | 32231 ft | 443 kts | 273° |
| 2026-05-04 13:09 | 57.08401 | -22.95268 | 32233 ft | 443 kts | 272° |
| 2026-05-04 13:10 | 57.08581 | -23.06612 | 32230 ft | 443 kts | 272° |
| 2026-05-04 13:10 | 57.08752 | -23.17993 | 32236 ft | 447 kts | 272° |
| 2026-05-04 13:11 | 57.08911 | -23.29357 | 32235 ft | 447 kts | 272° |
| 2026-05-04 13:11 | 57.09061 | -23.40810 | 32238 ft | 447 kts | 272° |
| 2026-05-04 13:12 | 57.09201 | -23.52265 | 32236 ft | 447 kts | 272° |
| 2026-05-04 13:12 | 57.09330 | -23.63710 | 32235 ft | 447 kts | 272° |
| 2026-05-04 13:13 | 57.09450 | -23.75164 | 32237 ft | 449 kts | 271° |
| 2026-05-04 13:13 | 57.09559 | -23.86660 | 32243 ft | 450 kts | 271° |
| 2026-05-04 13:14 | 57.09657 | -23.98119 | 32241 ft | 451 kts | 271° |
| 2026-05-04 13:14 | 57.09745 | -24.09664 | 32243 ft | 450 kts | 271° |
| 2026-05-04 13:15 | 57.09822 | -24.21198 | 32246 ft | 451 kts | 271° |
| 2026-05-04 13:15 | 57.09890 | -24.32717 | 32247 ft | 451 kts | 271° |
| 2026-05-04 13:16 | 57.09947 | -24.44252 | 32245 ft | 452 kts | 270° |
| 2026-05-04 13:16 | 57.09992 | -24.55763 | 32247 ft | 452 kts | 270° |
| 2026-05-04 13:17 | 57.10028 | -24.67321 | 32250 ft | 452 kts | 270° |
| 2026-05-04 13:17 | 57.10052 | -24.78899 | 32249 ft | 452 kts | 270° |
| 2026-05-04 13:18 | 57.10066 | -24.90448 | 32251 ft | 452 kts | 270° |
| 2026-05-04 13:18 | 57.10069 | -25.02008 | 32251 ft | 453 kts | 270° |
| 2026-05-04 13:19 | 57.10062 | -25.13615 | 32254 ft | 453 kts | 270° |
| 2026-05-04 13:19 | 57.10044 | -25.25219 | 32256 ft | 454 kts | 270° |
| 2026-05-04 13:20 | 57.10016 | -25.36741 | 32254 ft | 453 kts | 270° |
| 2026-05-04 13:20 | 57.09977 | -25.48334 | 32258 ft | 454 kts | 270° |
| 2026-05-04 13:21 | 57.09927 | -25.59943 | 32256 ft | 452 kts | 270° |
| 2026-05-04 13:21 | 57.09866 | -25.71547 | 32261 ft | 454 kts | 269° |
| 2026-05-04 13:22 | 57.09794 | -25.83172 | 32257 ft | 453 kts | 269° |
| 2026-05-04 13:22 | 57.09712 | -25.94708 | 32263 ft | 455 kts | 269° |
| 2026-05-04 13:23 | 57.09620 | -26.06331 | 32263 ft | 454 kts | 269° |
| 2026-05-04 13:23 | 57.09516 | -26.17930 | 32268 ft | 455 kts | 269° |
| 2026-05-04 13:24 | 57.09402 | -26.29551 | 32263 ft | 453 kts | 269° |
| 2026-05-04 13:24 | 57.09277 | -26.41166 | 32266 ft | 456 kts | 269° |
| 2026-05-04 13:25 | 57.09068 | -26.58712 | 32271 ft | 457 kts | 269° |
| 2026-05-04 13:25 | 57.08914 | -26.70437 | 32270 ft | 458 kts | 269° |
| 2026-05-04 13:26 | 57.08749 | -26.82133 | 32271 ft | 458 kts | 269° |
| 2026-05-04 13:26 | 57.08574 | -26.93853 | 32270 ft | 459 kts | 269° |
| 2026-05-04 13:27 | 57.08389 | -27.05445 | 32276 ft | 454 kts | 269° |
| 2026-05-04 13:27 | 57.08193 | -27.17039 | 32270 ft | 454 kts | 268° |
| 2026-05-04 13:28 | 57.07988 | -27.28625 | 32280 ft | 453 kts | 268° |
| 2026-05-04 13:28 | 57.07772 | -27.40222 | 32278 ft | 454 kts | 268° |
| 2026-05-04 13:29 | 57.07545 | -27.51799 | 32282 ft | 453 kts | 268° |
| 2026-05-04 13:29 | 57.07307 | -27.63394 | 32281 ft | 454 kts | 268° |
| 2026-05-04 13:30 | 57.07059 | -27.74943 | 32288 ft | 452 kts | 268° |
| 2026-05-04 13:30 | 57.06798 | -27.86593 | 32288 ft | 460 kts | 268° |
| 2026-05-04 13:31 | 57.06524 | -27.98382 | 32284 ft | 462 kts | 268° |
| 2026-05-04 13:31 | 57.06238 | -28.10160 | 32284 ft | 461 kts | 268° |
| 2026-05-04 13:32 | 57.05941 | -28.21923 | 32287 ft | 461 kts | 268° |
| 2026-05-04 13:32 | 57.05634 | -28.33669 | 32287 ft | 458 kts | 268° |
| 2026-05-04 13:33 | 57.05320 | -28.45231 | 32287 ft | 455 kts | 268° |
| 2026-05-04 13:33 | 57.04995 | -28.56875 | 32294 ft | 456 kts | 267° |
| 2026-05-04 13:34 | 57.04658 | -28.68490 | 32292 ft | 456 kts | 267° |
| 2026-05-04 13:34 | 57.04311 | -28.80127 | 32298 ft | 456 kts | 267° |
| 2026-05-04 13:35 | 57.03770 | -28.97570 | 32294 ft | 456 kts | 267° |
| 2026-05-04 13:36 | 57.03396 | -29.09167 | 32300 ft | 454 kts | 267° |
| 2026-05-04 13:36 | 57.03012 | -29.20794 | 32302 ft | 460 kts | 268° |
| 2026-05-04 13:37 | 57.02610 | -29.32636 | 32304 ft | 469 kts | 267° |
| 2026-05-04 13:37 | 57.02189 | -29.44621 | 32303 ft | 470 kts | 267° |
| 2026-05-04 13:38 | 57.01758 | -29.56571 | 32313 ft | 469 kts | 267° |
| 2026-05-04 13:38 | 57.01318 | -29.68445 | 32312 ft | 469 kts | 267° |
| 2026-05-04 13:39 | 57.00863 | -29.80463 | 32314 ft | 469 kts | 267° |
| 2026-05-04 13:39 | 57.00403 | -29.92309 | 32314 ft | 469 kts | 267° |
| 2026-05-04 13:40 | 57.00294 | -30.04222 | 32311 ft | 467 kts | 274° |
| 2026-05-04 13:40 | 57.00701 | -30.16148 | 32317 ft | 468 kts | 275° |
| 2026-05-04 13:41 | 57.01171 | -30.28071 | 32314 ft | 468 kts | 275° |
| 2026-05-04 13:41 | 57.01629 | -30.39986 | 32314 ft | 471 kts | 275° |
| 2026-05-04 13:42 | 57.02293 | -30.58228 | 32317 ft | 484 kts | 276° |
| 2026-05-04 13:42 | 57.02722 | -30.70598 | 32322 ft | 485 kts | 275° |
| 2026-05-04 13:43 | 57.03135 | -30.82862 | 32319 ft | 483 kts | 275° |
| 2026-05-04 13:43 | 57.03538 | -30.95201 | 32326 ft | 483 kts | 275° |
| 2026-05-04 13:44 | 57.03865 | -31.05454 | 32325 ft | 484 kts | 275° |
| 2026-05-04 13:44 | 57.04248 | -31.17787 | 32325 ft | 484 kts | 275° |
| 2026-05-04 13:45 | 57.04620 | -31.30132 | 32324 ft | 484 kts | 275° |
| 2026-05-04 13:45 | 57.04978 | -31.42481 | 32322 ft | 483 kts | 275° |
| 2026-05-04 13:46 | 57.05324 | -31.54815 | 32328 ft | 483 kts | 275° |
| 2026-05-04 13:46 | 57.05657 | -31.67152 | 32329 ft | 483 kts | 275° |
| 2026-05-04 13:47 | 57.05976 | -31.79391 | 32331 ft | 483 kts | 275° |
| 2026-05-04 13:47 | 57.06286 | -31.91737 | 32330 ft | 482 kts | 275° |
| 2026-05-04 13:48 | 57.06582 | -32.04055 | 32330 ft | 483 kts | 275° |
| 2026-05-04 13:48 | 57.06867 | -32.16392 | 32330 ft | 483 kts | 274° |
| 2026-05-04 13:49 | 57.07140 | -32.28709 | 32330 ft | 483 kts | 275° |
| 2026-05-04 13:49 | 57.07400 | -32.41046 | 32332 ft | 483 kts | 274° |
| 2026-05-04 13:50 | 57.07647 | -32.53351 | 32330 ft | 479 kts | 275° |
| 2026-05-04 13:50 | 57.07882 | -32.65593 | 32336 ft | 479 kts | 274° |
| 2026-05-04 13:51 | 57.08105 | -32.77820 | 32335 ft | 479 kts | 274° |
| 2026-05-04 13:51 | 57.08316 | -32.90050 | 32333 ft | 479 kts | 274° |
| 2026-05-04 13:52 | 57.08608 | -33.08338 | 32335 ft | 479 kts | 274° |
| 2026-05-04 13:53 | 57.08789 | -33.20584 | 32337 ft | 479 kts | 274° |
| 2026-05-04 13:53 | 57.08958 | -33.32819 | 32333 ft | 479 kts | 274° |
| 2026-05-04 13:54 | 57.09188 | -33.51185 | 32334 ft | 478 kts | 273° |
| 2026-05-04 13:55 | 57.09392 | -33.69547 | 32332 ft | 478 kts | 273° |
| 2026-05-04 13:55 | 57.09569 | -33.87836 | 32333 ft | 479 kts | 273° |
| 2026-05-04 13:56 | 57.09673 | -34.00087 | 32333 ft | 479 kts | 273° |
| 2026-05-04 13:57 | 57.09806 | -34.18477 | 32333 ft | 479 kts | 273° |
| 2026-05-04 13:58 | 57.09941 | -34.43030 | 32333 ft | 479 kts | 272° |
| 2026-05-04 13:58 | 57.10009 | -34.61359 | 32331 ft | 476 kts | 272° |
| 2026-05-04 13:59 | 57.10041 | -34.73443 | 32331 ft | 476 kts | 272° |
| 2026-05-04 14:00 | 57.10067 | -34.91699 | 32332 ft | 476 kts | 272° |
| 2026-05-04 14:00 | 57.10065 | -35.09943 | 32329 ft | 476 kts | 272° |
| 2026-05-04 14:01 | 57.10050 | -35.22119 | 32328 ft | 476 kts | 272° |
| 2026-05-04 14:02 | 57.10005 | -35.40364 | 32334 ft | 475 kts | 271° |
| 2026-05-04 14:02 | 57.09960 | -35.52519 | 32328 ft | 475 kts | 272° |
| 2026-05-04 14:03 | 57.09903 | -35.64621 | 32317 ft | 472 kts | 271° |
| 2026-05-04 14:03 | 57.09835 | -35.76677 | 32318 ft | 471 kts | 271° |
| 2026-05-04 14:04 | 57.09712 | -35.94745 | 32309 ft | 471 kts | 271° |
| 2026-05-04 14:04 | 57.09615 | -36.06787 | 32316 ft | 470 kts | 271° |
| 2026-05-04 14:05 | 57.09449 | -36.24781 | 32314 ft | 470 kts | 270° |
| 2026-05-04 14:06 | 57.09324 | -36.36819 | 32307 ft | 471 kts | 270° |
| 2026-05-04 14:06 | 57.09187 | -36.48861 | 32312 ft | 470 kts | 270° |
| 2026-05-04 14:07 | 57.09038 | -36.60891 | 32300 ft | 469 kts | 270° |
| 2026-05-04 14:07 | 57.08880 | -36.72747 | 32302 ft | 465 kts | 270° |
| 2026-05-04 14:08 | 57.08711 | -36.84653 | 32306 ft | 466 kts | 270° |
| 2026-05-04 14:08 | 57.08530 | -36.96560 | 32303 ft | 465 kts | 270° |
| 2026-05-04 14:09 | 57.08238 | -37.14422 | 32303 ft | 466 kts | 269° |
| 2026-05-04 14:10 | 57.07920 | -37.32288 | 32303 ft | 466 kts | 269° |
| 2026-05-04 14:10 | 57.07694 | -37.44187 | 32291 ft | 465 kts | 269° |
| 2026-05-04 14:11 | 57.07459 | -37.56013 | 32292 ft | 465 kts | 269° |
| 2026-05-04 14:11 | 57.07084 | -37.73784 | 32291 ft | 462 kts | 269° |
| 2026-05-04 14:12 | 57.06820 | -37.85592 | 32288 ft | 462 kts | 268° |
| 2026-05-04 14:13 | 57.06405 | -38.03291 | 32291 ft | 462 kts | 268° |
| 2026-05-04 14:13 | 57.06114 | -38.15084 | 32279 ft | 462 kts | 268° |
| 2026-05-04 14:14 | 57.05812 | -38.26865 | 32281 ft | 461 kts | 268° |
| 2026-05-04 14:14 | 57.05340 | -38.44515 | 32281 ft | 461 kts | 268° |
| 2026-05-04 14:15 | 57.04673 | -38.67972 | 32278 ft | 459 kts | 268° |
| 2026-05-04 14:16 | 57.04146 | -38.85502 | 32272 ft | 458 kts | 268° |
| 2026-05-04 14:17 | 57.03594 | -39.03041 | 32266 ft | 458 kts | 268° |
| 2026-05-04 14:18 | 57.03018 | -39.20542 | 32268 ft | 458 kts | 268° |
| 2026-05-04 14:19 | 57.02212 | -39.43906 | 32261 ft | 458 kts | 268° |
| 2026-05-04 14:19 | 57.01796 | -39.55493 | 32260 ft | 458 kts | 267° |
| 2026-05-04 14:20 | 57.01365 | -39.67154 | 32260 ft | 456 kts | 268° |
| 2026-05-04 14:20 | 57.00927 | -39.78746 | 32260 ft | 454 kts | 268° |
| 2026-05-04 14:21 | 57.00254 | -39.96073 | 32249 ft | 454 kts | 268° |
| 2026-05-04 14:21 | 56.99739 | -40.07633 | 32249 ft | 455 kts | 266° |
| 2026-05-04 14:22 | 56.99033 | -40.19150 | 32247 ft | 455 kts | 266° |
| 2026-05-04 14:22 | 56.98302 | -40.30611 | 32239 ft | 454 kts | 266° |
| 2026-05-04 14:23 | 56.97230 | -40.47831 | 32238 ft | 453 kts | 267° |
| 2026-05-04 14:24 | 56.96517 | -40.59298 | 32237 ft | 453 kts | 266° |
| 2026-05-04 14:24 | 56.95794 | -40.70765 | 32230 ft | 452 kts | 267° |
| 2026-05-04 14:25 | 56.95060 | -40.82197 | 32231 ft | 451 kts | 267° |
| 2026-05-04 14:25 | 56.93947 | -40.99248 | 32214 ft | 451 kts | 268° |
| 2026-05-04 14:26 | 56.93189 | -41.10625 | 32221 ft | 449 kts | 268° |
| 2026-05-04 14:26 | 56.92426 | -41.21944 | 32225 ft | 448 kts | 268° |
| 2026-05-04 14:27 | 56.91651 | -41.33277 | 32214 ft | 448 kts | 267° |
| 2026-05-04 14:27 | 56.90866 | -41.44616 | 32219 ft | 449 kts | 267° |
| 2026-05-04 14:28 | 56.90070 | -41.55943 | 32205 ft | 449 kts | 267° |
| 2026-05-04 14:28 | 56.89264 | -41.67262 | 32188 ft | 448 kts | 268° |
| 2026-05-04 14:29 | 56.87636 | -41.89666 | 32204 ft | 444 kts | 268° |
| 2026-05-04 14:30 | 56.86809 | -42.00863 | 32195 ft | 444 kts | 268° |
| 2026-05-04 14:31 | 56.85550 | -42.17633 | 32195 ft | 444 kts | 268° |
| 2026-05-04 14:32 | 56.83981 | -42.38098 | 32183 ft | 444 kts | 267° |
| 2026-05-04 14:32 | 56.83126 | -42.49041 | 32179 ft | 441 kts | 267° |
| 2026-05-04 14:33 | 56.82251 | -42.60133 | 32184 ft | 441 kts | 267° |
| 2026-05-04 14:33 | 56.81366 | -42.71231 | 32176 ft | 441 kts | 267° |
| 2026-05-04 14:34 | 56.80471 | -42.82326 | 32170 ft | 441 kts | 267° |
| 2026-05-04 14:34 | 56.79567 | -42.93393 | 32162 ft | 442 kts | 267° |
| 2026-05-04 14:35 | 56.78652 | -43.04476 | 32129 ft | 441 kts | 266° |
| 2026-05-04 14:35 | 56.77733 | -43.15473 | 32159 ft | 440 kts | 265° |
| 2026-05-04 14:36 | 56.76799 | -43.26546 | 32149 ft | 444 kts | 265° |
| 2026-05-04 14:36 | 56.75852 | -43.37616 | 32148 ft | 440 kts | 265° |
| 2026-05-04 14:37 | 56.74900 | -43.48644 | 32141 ft | 440 kts | 265° |
| 2026-05-04 14:37 | 56.73939 | -43.59662 | 32143 ft | 440 kts | 265° |
| 2026-05-04 14:38 | 56.72976 | -43.70595 | 32095 ft | 440 kts | 265° |
| 2026-05-04 14:38 | 56.71997 | -43.81577 | 32135 ft | 439 kts | 264° |
| 2026-05-04 14:39 | 56.71012 | -43.92527 | 32129 ft | 438 kts | 264° |
| 2026-05-04 14:39 | 56.70017 | -44.03474 | 32119 ft | 438 kts | 264° |
| 2026-05-04 14:40 | 56.68508 | -44.19874 | 32109 ft | 438 kts | 264° |
| 2026-05-04 14:40 | 56.67489 | -44.30799 | 32102 ft | 438 kts | 264° |
| 2026-05-04 14:41 | 56.66460 | -44.41731 | 32105 ft | 438 kts | 263° |
| 2026-05-04 14:42 | 56.64381 | -44.63479 | 32098 ft | 438 kts | 262° |
| 2026-05-04 14:42 | 56.63324 | -44.74384 | 32100 ft | 438 kts | 262° |
| 2026-05-04 14:43 | 56.62258 | -44.85281 | 32088 ft | 438 kts | 262° |
| 2026-05-04 14:43 | 56.61183 | -44.96169 | 32078 ft | 438 kts | 262° |
| 2026-05-04 14:44 | 56.60096 | -45.07076 | 32059 ft | 439 kts | 261° |
| 2026-05-04 14:44 | 56.58997 | -45.17997 | 32070 ft | 439 kts | 261° |
| 2026-05-04 14:45 | 56.57889 | -45.28903 | 32073 ft | 439 kts | 260° |
| 2026-05-04 14:45 | 56.56771 | -45.39804 | 32068 ft | 439 kts | 260° |
| 2026-05-04 14:46 | 56.55644 | -45.50690 | 32067 ft | 439 kts | 260° |
| 2026-05-04 14:46 | 56.54516 | -45.61496 | 32055 ft | 439 kts | 260° |
| 2026-05-04 14:47 | 56.53369 | -45.72385 | 32055 ft | 439 kts | 260° |
| 2026-05-04 14:47 | 56.52215 | -45.83247 | 32050 ft | 439 kts | 260° |
| 2026-05-04 14:48 | 56.51047 | -45.94136 | 32043 ft | 439 kts | 260° |
| 2026-05-04 14:48 | 56.49874 | -46.04998 | 32041 ft | 440 kts | 259° |
| 2026-05-04 14:49 | 56.48690 | -46.15846 | 32017 ft | 439 kts | 259° |
| 2026-05-04 14:49 | 56.47500 | -46.26668 | 32015 ft | 439 kts | 259° |
| 2026-05-04 14:50 | 56.46302 | -46.37470 | 32033 ft | 439 kts | 259° |
| 2026-05-04 14:50 | 56.45092 | -46.48299 | 32013 ft | 440 kts | 258° |
| 2026-05-04 14:51 | 56.43866 | -46.59149 | 32007 ft | 441 kts | 258° |
| 2026-05-04 14:51 | 56.42638 | -46.69943 | 31999 ft | 441 kts | 258° |
| 2026-05-04 14:52 | 56.41394 | -46.80785 | 31999 ft | 441 kts | 258° |
| 2026-05-04 14:52 | 56.40140 | -46.91626 | 31999 ft | 441 kts | 258° |
| 2026-05-04 14:53 | 56.38876 | -47.02471 | 31969 ft | 441 kts | 258° |
| 2026-05-04 14:53 | 56.37596 | -47.13347 | 31983 ft | 444 kts | 257° |
| 2026-05-04 14:54 | 56.36299 | -47.24286 | 31966 ft | 446 kts | 257° |
| 2026-05-04 14:54 | 56.34992 | -47.35220 | 31966 ft | 446 kts | 257° |
| 2026-05-04 14:55 | 56.33673 | -47.46166 | 31956 ft | 446 kts | 257° |
| 2026-05-04 14:55 | 56.32345 | -47.57104 | 31954 ft | 446 kts | 257° |
| 2026-05-04 14:56 | 56.31017 | -47.67957 | 31952 ft | 446 kts | 257° |
| 2026-05-04 14:56 | 56.29671 | -47.78879 | 31947 ft | 447 kts | 256° |
| 2026-05-04 14:57 | 56.28308 | -47.89842 | 31941 ft | 448 kts | 256° |
| 2026-05-04 14:57 | 56.26937 | -48.00783 | 31931 ft | 448 kts | 256° |
| 2026-05-04 14:58 | 56.25561 | -48.11676 | 31924 ft | 450 kts | 255° |
| 2026-05-04 14:58 | 56.24165 | -48.22651 | 31922 ft | 450 kts | 255° |
| 2026-05-04 14:59 | 56.22758 | -48.33628 | 31907 ft | 450 kts | 255° |
| 2026-05-04 15:00 | 56.20625 | -48.50107 | 31912 ft | 453 kts | 255° |
| 2026-05-04 15:00 | 56.19196 | -48.61045 | 31905 ft | 453 kts | 255° |
| 2026-05-04 15:01 | 56.17019 | -48.77552 | 31891 ft | 453 kts | 254° |
| 2026-05-04 15:01 | 56.15554 | -48.88548 | 31880 ft | 453 kts | 254° |
| 2026-05-04 15:02 | 56.14081 | -48.99528 | 31893 ft | 453 kts | 254° |
| 2026-05-04 15:02 | 56.12597 | -49.10512 | 31867 ft | 455 kts | 253° |
| 2026-05-04 15:03 | 56.11091 | -49.21574 | 31864 ft | 457 kts | 253° |
| 2026-05-04 15:03 | 56.09575 | -49.32635 | 31854 ft | 457 kts | 253° |
| 2026-05-04 15:04 | 56.08048 | -49.43695 | 31854 ft | 457 kts | 253° |
| 2026-05-04 15:04 | 56.06513 | -49.54735 | 31839 ft | 457 kts | 253° |
| 2026-05-04 15:05 | 56.04969 | -49.65757 | 31840 ft | 457 kts | 253° |
| 2026-05-04 15:05 | 56.03411 | -49.76792 | 31841 ft | 458 kts | 252° |
| 2026-05-04 15:06 | 56.01839 | -49.87849 | 31825 ft | 459 kts | 252° |
| 2026-05-04 15:07 | 55.99094 | -50.04073 | 31826 ft | 455 kts | 245° |
| 2026-05-04 15:07 | 55.96653 | -50.14486 | 31814 ft | 455 kts | 243° |
| 2026-05-04 15:08 | 55.94130 | -50.24851 | 31800 ft | 455 kts | 243° |
| 2026-05-04 15:08 | 55.91596 | -50.35203 | 31798 ft | 455 kts | 242° |
| 2026-05-04 15:09 | 55.89065 | -50.45543 | 31795 ft | 455 kts | 242° |
| 2026-05-04 15:09 | 55.86547 | -50.55809 | 31788 ft | 455 kts | 242° |
| 2026-05-04 15:10 | 55.82727 | -50.71293 | 31773 ft | 455 kts | 242° |
| 2026-05-04 15:11 | 55.78886 | -50.86737 | 31774 ft | 455 kts | 241° |
| 2026-05-04 15:11 | 55.76317 | -50.97011 | 31761 ft | 455 kts | 241° |
| 2026-05-04 15:12 | 55.73742 | -51.07267 | 31758 ft | 455 kts | 241° |
| 2026-05-04 15:12 | 55.71161 | -51.17494 | 31747 ft | 455 kts | 241° |
| 2026-05-04 15:13 | 55.68566 | -51.27732 | 31747 ft | 454 kts | 241° |
| 2026-05-04 15:13 | 55.65982 | -51.37878 | 31748 ft | 455 kts | 240° |
| 2026-05-04 15:14 | 55.63374 | -51.48072 | 31730 ft | 454 kts | 240° |
| 2026-05-04 15:14 | 55.60755 | -51.58259 | 31730 ft | 454 kts | 240° |
| 2026-05-04 15:15 | 55.58131 | -51.68422 | 31730 ft | 454 kts | 240° |
| 2026-05-04 15:15 | 55.55496 | -51.78583 | 31719 ft | 454 kts | 240° |
| 2026-05-04 15:16 | 55.51533 | -51.93777 | 31714 ft | 454 kts | 239° |
| 2026-05-04 15:17 | 55.47550 | -52.08942 | 31702 ft | 454 kts | 239° |
| 2026-05-04 15:17 | 55.43626 | -52.23784 | 31692 ft | 454 kts | 239° |
| 2026-05-04 15:18 | 55.40955 | -52.33833 | 31689 ft | 454 kts | 239° |
| 2026-05-04 15:19 | 55.37407 | -52.47107 | 31673 ft | 456 kts | 238° |
| 2026-05-04 15:19 | 55.33330 | -52.62268 | 31675 ft | 458 kts | 238° |
| 2026-05-04 15:20 | 55.30595 | -52.72388 | 31657 ft | 458 kts | 238° |
| 2026-05-04 15:20 | 55.27854 | -52.82484 | 31641 ft | 458 kts | 238° |
| 2026-05-04 15:21 | 55.25121 | -52.92507 | 31667 ft | 458 kts | 237° |
| 2026-05-04 15:22 | 55.20950 | -53.07695 | 31635 ft | 463 kts | 237° |
| 2026-05-04 15:22 | 55.16749 | -53.22921 | 31628 ft | 463 kts | 237° |
| 2026-05-04 15:23 | 55.13995 | -53.32846 | 31625 ft | 463 kts | 237° |
| 2026-05-04 15:23 | 55.11183 | -53.42931 | 31657 ft | 463 kts | 237° |
| 2026-05-04 15:24 | 55.06199 | -53.60691 | 31611 ft | 468 kts | 236° |
| 2026-05-04 15:25 | 55.03324 | -53.70886 | 31603 ft | 468 kts | 236° |
| 2026-05-04 15:26 | 54.99002 | -53.86125 | 31599 ft | 467 kts | 236° |
| 2026-05-04 15:26 | 54.94667 | -54.01300 | 31594 ft | 469 kts | 235° |
| 2026-05-04 15:27 | 54.90268 | -54.16590 | 31582 ft | 471 kts | 235° |
| 2026-05-04 15:28 | 54.85868 | -54.31806 | 31570 ft | 471 kts | 235° |
| 2026-05-04 15:29 | 54.81435 | -54.47025 | 31569 ft | 472 kts | 235° |
| 2026-05-04 15:30 | 54.70945 | -54.82662 | 31545 ft | 475 kts | 234° |
| 2026-05-04 15:31 | 54.66416 | -54.97879 | 31540 ft | 476 kts | 234° |
| 2026-05-04 15:32 | 54.58786 | -55.23293 | 31508 ft | 479 kts | 234° |
| 2026-05-04 15:34 | 54.51078 | -55.48697 | 31501 ft | 480 kts | 234° |
| 2026-05-04 15:34 | 54.46428 | -55.63889 | 31490 ft | 483 kts | 234° |
| 2026-05-04 15:35 | 54.41713 | -55.79207 | 31489 ft | 483 kts | 234° |
| 2026-05-04 15:36 | 54.36982 | -55.94474 | 31507 ft | 483 kts | 233° |
| 2026-05-04 15:36 | 54.33822 | -56.04609 | 31473 ft | 485 kts | 233° |
| 2026-05-04 15:37 | 54.30628 | -56.14816 | 31464 ft | 486 kts | 233° |
| 2026-05-04 15:37 | 54.27416 | -56.25038 | 31462 ft | 488 kts | 233° |
| 2026-05-04 15:38 | 54.24186 | -56.35271 | 31462 ft | 489 kts | 233° |
| 2026-05-04 15:38 | 54.20944 | -56.45505 | 31459 ft | 490 kts | 233° |
| 2026-05-04 15:39 | 54.17688 | -56.55733 | 31451 ft | 491 kts | 233° |
| 2026-05-04 15:40 | 54.12797 | -56.71024 | 31451 ft | 491 kts | 233° |
| 2026-05-04 15:40 | 54.09516 | -56.81226 | 31442 ft | 491 kts | 233° |
| 2026-05-04 15:41 | 54.06223 | -56.91422 | 31446 ft | 491 kts | 233° |
| 2026-05-04 15:41 | 54.02718 | -57.01284 | 31435 ft | 480 kts | 224° |
| 2026-05-04 15:42 | 53.98592 | -57.10161 | 31678 ft | 476 kts | 222° |
| 2026-05-04 15:42 | 53.96486 | -57.14513 | 31939 ft | 474 kts | 221° |
| 2026-05-04 15:42 | 53.94387 | -57.18812 | 32201 ft | 472 kts | 221° |
| 2026-05-04 15:42 | 53.92315 | -57.23042 | 32460 ft | 471 kts | 221° |
| 2026-05-04 15:43 | 53.90223 | -57.27312 | 32750 ft | 470 kts | 221° |
| 2026-05-04 15:43 | 53.88130 | -57.31583 | 32916 ft | 470 kts | 221° |
| 2026-05-04 15:43 | 53.86035 | -57.35856 | 33098 ft | 470 kts | 221° |
| 2026-05-04 15:43 | 53.83940 | -57.40129 | 33294 ft | 470 kts | 221° |
| 2026-05-04 15:44 | 53.81853 | -57.44383 | 33419 ft | 471 kts | 221° |
| 2026-05-04 15:44 | 53.77650 | -57.52925 | 33427 ft | 472 kts | 221° |
| 2026-05-04 15:45 | 53.73450 | -57.61441 | 33417 ft | 472 kts | 221° |
| 2026-05-04 15:45 | 53.70707 | -57.66980 | 33421 ft | 472 kts | 221° |
| 2026-05-04 15:46 | 53.69358 | -57.69687 | 33360 ft | 473 kts | 221° |
| 2026-05-04 15:46 | 53.67577 | -57.73229 | 33270 ft | 473 kts | 221° |
| 2026-05-04 15:47 | 53.65688 | -57.77014 | 33200 ft | 475 kts | 222° |
| 2026-05-04 15:47 | 53.65203 | -57.78004 | 33187 ft | 475 kts | 222° |
| 2026-05-04 15:48 | 53.64413 | -57.79636 | 33188 ft | 474 kts | 221° |
| 2026-05-04 15:49 | 53.63199 | -57.81785 | 33176 ft | 461 kts | 210° |
| 2026-05-04 15:49 | 53.63116 | -57.81902 | 33164 ft | 460 kts | 209° |
| 2026-05-04 15:54 | 53.62320 | -57.82900 | 32985 ft | 457 kts | 208° |
| 2026-05-04 15:54 | 53.61042 | -57.84538 | 32809 ft | 469 kts | 217° |
| 2026-05-04 15:55 | 53.60857 | -57.84837 | 32757 ft | 473 kts | 219° |